sensor_id;sensor_type;location;lat;lon;timestamp;P1;durP1;ratioP1;P2;durP2;ratioP2
29358;SDS011;16347;53.232;6.556;2022-10-31T00:01:19;27.17;;;12.57;;
29358;SDS011;16347;53.232;6.556;2022-10-31T00:03:49;30.27;;;13.07;;
29358;SDS011;16347;53.232;6.556;2022-10-31T00:06:16;41.78;;;13.60;;
29358;SDS011;16347;53.232;6.556;2022-10-31T00:08:45;35.13;;;13.48;;
29358;SDS011;16347;53.232;6.556;2022-10-31T00:11:13;30.10;;;13.02;;
29358;SDS011;16347;53.232;6.556;2022-10-31T00:13:43;19.77;;;12.23;;
29358;SDS011;16347;53.232;6.556;2022-10-31T00:16:14;27.27;;;12.85;;
29358;SDS011;16347;53.232;6.556;2022-10-31T00:18:47;32.45;;;13.68;;
29358;SDS011;16347;53.232;6.556;2022-10-31T00:21:16;28.55;;;13.45;;
29358;SDS011;16347;53.232;6.556;2022-10-31T00:23:44;32.65;;;12.98;;
29358;SDS011;16347;53.232;6.556;2022-10-31T00:26:13;28.00;;;13.20;;
29358;SDS011;16347;53.232;6.556;2022-10-31T00:28:42;28.30;;;13.60;;
29358;SDS011;16347;53.232;6.556;2022-10-31T00:31:11;25.00;;;13.45;;
29358;SDS011;16347;53.232;6.556;2022-10-31T00:33:40;29.80;;;15.25;;
29358;SDS011;16347;53.232;6.556;2022-10-31T00:36:11;33.95;;;15.00;;
29358;SDS011;16347;53.232;6.556;2022-10-31T00:38:41;36.20;;;15.45;;
29358;SDS011;16347;53.232;6.556;2022-10-31T00:41:09;30.48;;;14.10;;
29358;SDS011;16347;53.232;6.556;2022-10-31T00:43:39;28.48;;;15.15;;
29358;SDS011;16347;53.232;6.556;2022-10-31T00:46:09;40.92;;;14.68;;
29358;SDS011;16347;53.232;6.556;2022-10-31T00:48:37;32.63;;;15.10;;
29358;SDS011;16347;53.232;6.556;2022-10-31T00:51:05;29.33;;;15.27;;
29358;SDS011;16347;53.232;6.556;2022-10-31T00:53:34;36.10;;;15.10;;
29358;SDS011;16347;53.232;6.556;2022-10-31T00:56:03;34.28;;;14.93;;
29358;SDS011;16347;53.232;6.556;2022-10-31T00:58:31;31.50;;;14.98;;
29358;SDS011;16347;53.232;6.556;2022-10-31T01:01:00;33.55;;;13.85;;
29358;SDS011;16347;53.232;6.556;2022-10-31T01:03:30;30.38;;;15.05;;
29358;SDS011;16347;53.232;6.556;2022-10-31T01:06:00;31.25;;;15.70;;
29358;SDS011;16347;53.232;6.556;2022-10-31T01:08:31;25.20;;;13.70;;
29358;SDS011;16347;53.232;6.556;2022-10-31T01:11:01;27.40;;;14.02;;
29358;SDS011;16347;53.232;6.556;2022-10-31T01:13:31;31.85;;;14.40;;
29358;SDS011;16347;53.232;6.556;2022-10-31T01:16:00;34.60;;;15.90;;
29358;SDS011;16347;53.232;6.556;2022-10-31T01:18:32;39.22;;;16.30;;
29358;SDS011;16347;53.232;6.556;2022-10-31T01:21:01;39.03;;;14.98;;
29358;SDS011;16347;53.232;6.556;2022-10-31T01:23:31;23.77;;;14.60;;
29358;SDS011;16347;53.232;6.556;2022-10-31T01:26:00;28.65;;;14.23;;
29358;SDS011;16347;53.232;6.556;2022-10-31T01:28:31;29.00;;;15.07;;
29358;SDS011;16347;53.232;6.556;2022-10-31T01:31:00;27.10;;;13.80;;
29358;SDS011;16347;53.232;6.556;2022-10-31T01:33:29;34.83;;;13.88;;
29358;SDS011;16347;53.232;6.556;2022-10-31T01:35:58;30.83;;;14.73;;
29358;SDS011;16347;53.232;6.556;2022-10-31T01:38:26;33.03;;;14.23;;
29358;SDS011;16347;53.232;6.556;2022-10-31T01:40:54;31.98;;;14.27;;
29358;SDS011;16347;53.232;6.556;2022-10-31T01:43:22;30.90;;;13.90;;
29358;SDS011;16347;53.232;6.556;2022-10-31T01:45:51;27.42;;;13.57;;
29358;SDS011;16347;53.232;6.556;2022-10-31T01:48:23;25.05;;;12.15;;
29358;SDS011;16347;53.232;6.556;2022-10-31T01:50:59;28.08;;;13.13;;
29358;SDS011;16347;53.232;6.556;2022-10-31T01:53:27;26.67;;;13.27;;
29358;SDS011;16347;53.232;6.556;2022-10-31T01:55:55;31.50;;;14.23;;
29358;SDS011;16347;53.232;6.556;2022-10-31T01:58:24;25.33;;;12.48;;
29358;SDS011;16347;53.232;6.556;2022-10-31T02:00:56;23.55;;;13.23;;
29358;SDS011;16347;53.232;6.556;2022-10-31T02:03:33;26.58;;;13.27;;
29358;SDS011;16347;53.232;6.556;2022-10-31T02:06:02;27.27;;;12.73;;
29358;SDS011;16347;53.232;6.556;2022-10-31T02:08:35;24.05;;;12.48;;
29358;SDS011;16347;53.232;6.556;2022-10-31T02:11:06;26.73;;;12.23;;
29358;SDS011;16347;53.232;6.556;2022-10-31T02:13:35;26.38;;;12.88;;
29358;SDS011;16347;53.232;6.556;2022-10-31T02:16:08;26.35;;;12.32;;
29358;SDS011;16347;53.232;6.556;2022-10-31T02:18:37;27.08;;;12.52;;
29358;SDS011;16347;53.232;6.556;2022-10-31T02:21:09;25.60;;;12.68;;
29358;SDS011;16347;53.232;6.556;2022-10-31T02:23:56;34.50;;;13.00;;
29358;SDS011;16347;53.232;6.556;2022-10-31T02:26:53;23.48;;;13.18;;
29358;SDS011;16347;53.232;6.556;2022-10-31T02:29:37;25.30;;;12.77;;
29358;SDS011;16347;53.232;6.556;2022-10-31T02:32:29;26.92;;;14.20;;
29358;SDS011;16347;53.232;6.556;2022-10-31T02:35:08;27.48;;;13.80;;
29358;SDS011;16347;53.232;6.556;2022-10-31T02:37:42;26.63;;;13.65;;
29358;SDS011;16347;53.232;6.556;2022-10-31T02:40:17;28.02;;;13.82;;
29358;SDS011;16347;53.232;6.556;2022-10-31T02:43:09;28.45;;;14.45;;
29358;SDS011;16347;53.232;6.556;2022-10-31T02:45:43;27.98;;;13.60;;
29358;SDS011;16347;53.232;6.556;2022-10-31T02:48:20;22.80;;;12.88;;
29358;SDS011;16347;53.232;6.556;2022-10-31T02:53:22;26.05;;;12.77;;
29358;SDS011;16347;53.232;6.556;2022-10-31T02:55:58;32.15;;;14.10;;
29358;SDS011;16347;53.232;6.556;2022-10-31T02:58:29;25.83;;;14.10;;
29358;SDS011;16347;53.232;6.556;2022-10-31T03:01:10;29.10;;;13.85;;
29358;SDS011;16347;53.232;6.556;2022-10-31T03:04:06;24.33;;;13.75;;
29358;SDS011;16347;53.232;6.556;2022-10-31T03:06:54;26.88;;;13.77;;
29358;SDS011;16347;53.232;6.556;2022-10-31T03:09:31;27.70;;;14.70;;
29358;SDS011;16347;53.232;6.556;2022-10-31T03:12:07;27.48;;;14.43;;
29358;SDS011;16347;53.232;6.556;2022-10-31T03:17:10;23.58;;;13.30;;
29358;SDS011;16347;53.232;6.556;2022-10-31T03:19:47;31.42;;;15.85;;
29358;SDS011;16347;53.232;6.556;2022-10-31T03:24:49;27.02;;;14.07;;
29358;SDS011;16347;53.232;6.556;2022-10-31T03:27:21;33.08;;;15.70;;
29358;SDS011;16347;53.232;6.556;2022-10-31T03:29:52;28.70;;;14.65;;
29358;SDS011;16347;53.232;6.556;2022-10-31T03:32:24;28.65;;;13.65;;
29358;SDS011;16347;53.232;6.556;2022-10-31T03:34:58;31.50;;;15.02;;
29358;SDS011;16347;53.232;6.556;2022-10-31T03:37:29;26.05;;;14.43;;
29358;SDS011;16347;53.232;6.556;2022-10-31T03:39:59;23.10;;;14.02;;
29358;SDS011;16347;53.232;6.556;2022-10-31T03:42:33;30.47;;;13.53;;
29358;SDS011;16347;53.232;6.556;2022-10-31T03:45:06;25.35;;;13.93;;
29358;SDS011;16347;53.232;6.556;2022-10-31T03:47:39;25.17;;;14.77;;
29358;SDS011;16347;53.232;6.556;2022-10-31T03:50:12;23.00;;;12.90;;
29358;SDS011;16347;53.232;6.556;2022-10-31T03:52:45;22.83;;;12.63;;
29358;SDS011;16347;53.232;6.556;2022-10-31T03:55:18;24.45;;;13.93;;
29358;SDS011;16347;53.232;6.556;2022-10-31T03:57:52;28.92;;;13.35;;
29358;SDS011;16347;53.232;6.556;2022-10-31T04:00:26;23.42;;;13.02;;
29358;SDS011;16347;53.232;6.556;2022-10-31T04:02:55;24.67;;;12.93;;
29358;SDS011;16347;53.232;6.556;2022-10-31T04:05:32;26.92;;;12.77;;
29358;SDS011;16347;53.232;6.556;2022-10-31T04:08:02;26.17;;;12.90;;
29358;SDS011;16347;53.232;6.556;2022-10-31T04:10:34;21.98;;;12.65;;
29358;SDS011;16347;53.232;6.556;2022-10-31T04:13:07;25.83;;;12.23;;
29358;SDS011;16347;53.232;6.556;2022-10-31T04:15:44;20.98;;;12.75;;
29358;SDS011;16347;53.232;6.556;2022-10-31T04:18:16;24.83;;;12.82;;
29358;SDS011;16347;53.232;6.556;2022-10-31T04:20:46;20.92;;;12.88;;
29358;SDS011;16347;53.232;6.556;2022-10-31T04:23:17;26.77;;;12.93;;
29358;SDS011;16347;53.232;6.556;2022-10-31T04:25:48;25.23;;;12.48;;
29358;SDS011;16347;53.232;6.556;2022-10-31T04:28:16;23.60;;;12.68;;
29358;SDS011;16347;53.232;6.556;2022-10-31T04:30:45;25.60;;;13.48;;
29358;SDS011;16347;53.232;6.556;2022-10-31T04:33:14;26.25;;;13.77;;
29358;SDS011;16347;53.232;6.556;2022-10-31T04:35:46;28.95;;;14.13;;
29358;SDS011;16347;53.232;6.556;2022-10-31T04:38:15;23.25;;;12.40;;
29358;SDS011;16347;53.232;6.556;2022-10-31T04:40:44;23.65;;;12.55;;
29358;SDS011;16347;53.232;6.556;2022-10-31T04:43:15;23.92;;;13.40;;
29358;SDS011;16347;53.232;6.556;2022-10-31T04:45:44;23.67;;;13.23;;
29358;SDS011;16347;53.232;6.556;2022-10-31T04:48:12;23.67;;;12.65;;
29358;SDS011;16347;53.232;6.556;2022-10-31T04:50:43;23.10;;;11.77;;
29358;SDS011;16347;53.232;6.556;2022-10-31T04:53:13;24.42;;;12.68;;
29358;SDS011;16347;53.232;6.556;2022-10-31T04:56:04;23.08;;;12.70;;
29358;SDS011;16347;53.232;6.556;2022-10-31T04:58:38;32.10;;;14.02;;
29358;SDS011;16347;53.232;6.556;2022-10-31T05:01:08;23.85;;;13.23;;
29358;SDS011;16347;53.232;6.556;2022-10-31T05:03:37;22.45;;;13.00;;
29358;SDS011;16347;53.232;6.556;2022-10-31T05:06:06;26.52;;;12.55;;
29358;SDS011;16347;53.232;6.556;2022-10-31T05:08:36;27.92;;;12.90;;
29358;SDS011;16347;53.232;6.556;2022-10-31T05:11:06;23.10;;;13.18;;
29358;SDS011;16347;53.232;6.556;2022-10-31T05:13:34;27.70;;;13.35;;
29358;SDS011;16347;53.232;6.556;2022-10-31T05:16:11;20.98;;;12.93;;
29358;SDS011;16347;53.232;6.556;2022-10-31T05:18:48;22.48;;;13.25;;
29358;SDS011;16347;53.232;6.556;2022-10-31T05:21:25;22.95;;;13.00;;
29358;SDS011;16347;53.232;6.556;2022-10-31T05:23:59;25.83;;;13.60;;
29358;SDS011;16347;53.232;6.556;2022-10-31T05:26:28;20.50;;;12.65;;
29358;SDS011;16347;53.232;6.556;2022-10-31T05:28:56;23.10;;;12.23;;
29358;SDS011;16347;53.232;6.556;2022-10-31T05:31:24;28.02;;;13.43;;
29358;SDS011;16347;53.232;6.556;2022-10-31T05:33:52;25.70;;;12.70;;
29358;SDS011;16347;53.232;6.556;2022-10-31T05:39:17;22.40;;;12.40;;
29358;SDS011;16347;53.232;6.556;2022-10-31T05:41:48;22.55;;;12.38;;
29358;SDS011;16347;53.232;6.556;2022-10-31T05:44:23;27.08;;;12.77;;
29358;SDS011;16347;53.232;6.556;2022-10-31T05:47:04;37.45;;;14.93;;
29358;SDS011;16347;53.232;6.556;2022-10-31T05:49:51;23.83;;;12.52;;
29358;SDS011;16347;53.232;6.556;2022-10-31T05:52:31;25.73;;;13.70;;
29358;SDS011;16347;53.232;6.556;2022-10-31T05:55:08;27.58;;;15.40;;
29358;SDS011;16347;53.232;6.556;2022-10-31T05:57:40;28.10;;;13.38;;
29358;SDS011;16347;53.232;6.556;2022-10-31T06:00:08;25.45;;;12.63;;
29358;SDS011;16347;53.232;6.556;2022-10-31T06:02:46;27.42;;;12.95;;
29358;SDS011;16347;53.232;6.556;2022-10-31T06:05:32;24.33;;;13.23;;
29358;SDS011;16347;53.232;6.556;2022-10-31T06:08:00;28.38;;;13.30;;
29358;SDS011;16347;53.232;6.556;2022-10-31T06:10:31;24.90;;;12.63;;
29358;SDS011;16347;53.232;6.556;2022-10-31T06:12:59;21.90;;;12.07;;
29358;SDS011;16347;53.232;6.556;2022-10-31T06:15:56;20.30;;;13.38;;
29358;SDS011;16347;53.232;6.556;2022-10-31T06:18:31;22.75;;;13.05;;
29358;SDS011;16347;53.232;6.556;2022-10-31T06:20:59;23.23;;;12.65;;
29358;SDS011;16347;53.232;6.556;2022-10-31T06:23:27;22.70;;;13.45;;
29358;SDS011;16347;53.232;6.556;2022-10-31T06:26:17;25.20;;;13.32;;
29358;SDS011;16347;53.232;6.556;2022-10-31T06:28:45;23.98;;;12.85;;
29358;SDS011;16347;53.232;6.556;2022-10-31T06:31:25;25.95;;;12.85;;
29358;SDS011;16347;53.232;6.556;2022-10-31T06:33:53;23.55;;;12.50;;
29358;SDS011;16347;53.232;6.556;2022-10-31T06:36:21;22.02;;;12.82;;
29358;SDS011;16347;53.232;6.556;2022-10-31T06:38:51;19.38;;;13.00;;
29358;SDS011;16347;53.232;6.556;2022-10-31T06:41:23;26.77;;;13.38;;
29358;SDS011;16347;53.232;6.556;2022-10-31T06:43:52;24.67;;;13.15;;
29358;SDS011;16347;53.232;6.556;2022-10-31T06:46:49;25.42;;;13.50;;
29358;SDS011;16347;53.232;6.556;2022-10-31T06:49:35;24.38;;;12.80;;
29358;SDS011;16347;53.232;6.556;2022-10-31T06:52:09;21.67;;;12.95;;
29358;SDS011;16347;53.232;6.556;2022-10-31T06:54:37;20.77;;;11.57;;
29358;SDS011;16347;53.232;6.556;2022-10-31T06:57:07;20.52;;;12.02;;
29358;SDS011;16347;53.232;6.556;2022-10-31T06:59:36;21.05;;;11.95;;
29358;SDS011;16347;53.232;6.556;2022-10-31T07:02:13;28.15;;;12.32;;
29358;SDS011;16347;53.232;6.556;2022-10-31T07:04:42;22.95;;;12.07;;
29358;SDS011;16347;53.232;6.556;2022-10-31T07:07:13;18.60;;;12.05;;
29358;SDS011;16347;53.232;6.556;2022-10-31T07:09:41;20.88;;;11.80;;
29358;SDS011;16347;53.232;6.556;2022-10-31T07:12:11;24.73;;;12.77;;
29358;SDS011;16347;53.232;6.556;2022-10-31T07:14:47;20.40;;;12.65;;
29358;SDS011;16347;53.232;6.556;2022-10-31T07:17:15;22.95;;;11.88;;
29358;SDS011;16347;53.232;6.556;2022-10-31T07:19:44;26.00;;;12.98;;
29358;SDS011;16347;53.232;6.556;2022-10-31T07:22:14;26.02;;;12.02;;
29358;SDS011;16347;53.232;6.556;2022-10-31T07:24:43;21.75;;;12.15;;
29358;SDS011;16347;53.232;6.556;2022-10-31T07:27:48;25.65;;;11.90;;
29358;SDS011;16347;53.232;6.556;2022-10-31T07:30:17;25.25;;;11.77;;
29358;SDS011;16347;53.232;6.556;2022-10-31T07:32:49;27.27;;;12.02;;
29358;SDS011;16347;53.232;6.556;2022-10-31T07:35:19;22.63;;;12.15;;
29358;SDS011;16347;53.232;6.556;2022-10-31T07:37:54;21.80;;;11.90;;
29358;SDS011;16347;53.232;6.556;2022-10-31T07:40:24;26.75;;;13.23;;
29358;SDS011;16347;53.232;6.556;2022-10-31T07:42:54;24.98;;;12.60;;
29358;SDS011;16347;53.232;6.556;2022-10-31T07:45:55;27.17;;;13.00;;
29358;SDS011;16347;53.232;6.556;2022-10-31T07:48:58;20.83;;;13.27;;
29358;SDS011;16347;53.232;6.556;2022-10-31T07:51:45;26.33;;;12.88;;
29358;SDS011;16347;53.232;6.556;2022-10-31T07:54:44;24.77;;;13.15;;
29358;SDS011;16347;53.232;6.556;2022-10-31T07:57:21;26.80;;;13.25;;
29358;SDS011;16347;53.232;6.556;2022-10-31T07:59:52;23.27;;;12.70;;
29358;SDS011;16347;53.232;6.556;2022-10-31T08:02:22;22.67;;;13.38;;
29358;SDS011;16347;53.232;6.556;2022-10-31T08:05:10;24.23;;;13.57;;
29358;SDS011;16347;53.232;6.556;2022-10-31T08:07:58;27.15;;;13.90;;
29358;SDS011;16347;53.232;6.556;2022-10-31T08:10:28;24.30;;;14.02;;
29358;SDS011;16347;53.232;6.556;2022-10-31T08:12:57;22.75;;;13.48;;
29358;SDS011;16347;53.232;6.556;2022-10-31T08:15:28;28.20;;;13.93;;
29358;SDS011;16347;53.232;6.556;2022-10-31T08:17:56;26.23;;;13.88;;
29358;SDS011;16347;53.232;6.556;2022-10-31T08:20:26;23.58;;;14.35;;
29358;SDS011;16347;53.232;6.556;2022-10-31T08:22:57;22.95;;;13.38;;
29358;SDS011;16347;53.232;6.556;2022-10-31T08:25:26;25.30;;;13.68;;
29358;SDS011;16347;53.232;6.556;2022-10-31T08:28:03;22.35;;;12.68;;
29358;SDS011;16347;53.232;6.556;2022-10-31T08:30:33;20.88;;;12.57;;
29358;SDS011;16347;53.232;6.556;2022-10-31T08:33:37;21.67;;;12.15;;
29358;SDS011;16347;53.232;6.556;2022-10-31T08:36:29;19.73;;;12.50;;
29358;SDS011;16347;53.232;6.556;2022-10-31T08:39:10;23.75;;;12.48;;
29358;SDS011;16347;53.232;6.556;2022-10-31T08:41:38;20.80;;;11.93;;
29358;SDS011;16347;53.232;6.556;2022-10-31T08:44:10;21.02;;;12.48;;
29358;SDS011;16347;53.232;6.556;2022-10-31T08:46:39;17.45;;;11.10;;
29358;SDS011;16347;53.232;6.556;2022-10-31T08:49:07;23.60;;;11.80;;
29358;SDS011;16347;53.232;6.556;2022-10-31T08:51:35;19.42;;;12.57;;
29358;SDS011;16347;53.232;6.556;2022-10-31T08:54:03;20.73;;;12.82;;
29358;SDS011;16347;53.232;6.556;2022-10-31T08:56:52;19.85;;;11.18;;
29358;SDS011;16347;53.232;6.556;2022-10-31T08:59:39;23.58;;;12.73;;
29358;SDS011;16347;53.232;6.556;2022-10-31T09:02:23;25.67;;;13.35;;
29358;SDS011;16347;53.232;6.556;2022-10-31T09:04:56;20.88;;;11.48;;
29358;SDS011;16347;53.232;6.556;2022-10-31T09:07:24;22.52;;;11.30;;
29358;SDS011;16347;53.232;6.556;2022-10-31T09:09:53;23.30;;;12.88;;
29358;SDS011;16347;53.232;6.556;2022-10-31T09:12:22;19.95;;;10.95;;
29358;SDS011;16347;53.232;6.556;2022-10-31T09:15:09;17.55;;;10.55;;
29358;SDS011;16347;53.232;6.556;2022-10-31T09:17:47;20.63;;;11.13;;
29358;SDS011;16347;53.232;6.556;2022-10-31T09:20:38;18.13;;;10.75;;
29358;SDS011;16347;53.232;6.556;2022-10-31T09:23:09;22.30;;;10.57;;
29358;SDS011;16347;53.232;6.556;2022-10-31T09:25:38;21.20;;;10.55;;
29358;SDS011;16347;53.232;6.556;2022-10-31T09:28:48;17.17;;;10.30;;
29358;SDS011;16347;53.232;6.556;2022-10-31T09:31:17;22.63;;;10.50;;
29358;SDS011;16347;53.232;6.556;2022-10-31T09:34:10;20.02;;;10.57;;
29358;SDS011;16347;53.232;6.556;2022-10-31T09:36:44;16.02;;;10.63;;
29358;SDS011;16347;53.232;6.556;2022-10-31T09:39:21;19.25;;;9.75;;
29358;SDS011;16347;53.232;6.556;2022-10-31T09:42:02;21.80;;;11.18;;
29358;SDS011;16347;53.232;6.556;2022-10-31T09:44:41;19.95;;;10.75;;
29358;SDS011;16347;53.232;6.556;2022-10-31T09:47:35;18.77;;;10.68;;
29358;SDS011;16347;53.232;6.556;2022-10-31T09:50:38;18.50;;;9.85;;
29358;SDS011;16347;53.232;6.556;2022-10-31T09:53:34;17.48;;;9.73;;
29358;SDS011;16347;53.232;6.556;2022-10-31T09:56:07;16.58;;;9.10;;
29358;SDS011;16347;53.232;6.556;2022-10-31T09:58:40;17.38;;;10.10;;
29358;SDS011;16347;53.232;6.556;2022-10-31T10:01:16;18.92;;;10.15;;
29358;SDS011;16347;53.232;6.556;2022-10-31T10:03:51;20.92;;;10.70;;
29358;SDS011;16347;53.232;6.556;2022-10-31T10:06:53;14.57;;;9.90;;
29358;SDS011;16347;53.232;6.556;2022-10-31T10:09:57;19.75;;;10.55;;
29358;SDS011;16347;53.232;6.556;2022-10-31T10:12:49;28.88;;;10.52;;
29358;SDS011;16347;53.232;6.556;2022-10-31T10:15:36;18.98;;;11.07;;
29358;SDS011;16347;53.232;6.556;2022-10-31T10:18:18;26.27;;;11.23;;
29358;SDS011;16347;53.232;6.556;2022-10-31T10:21:00;14.52;;;9.95;;
29358;SDS011;16347;53.232;6.556;2022-10-31T10:23:45;19.50;;;10.48;;
29358;SDS011;16347;53.232;6.556;2022-10-31T10:26:26;15.95;;;9.60;;
29358;SDS011;16347;53.232;6.556;2022-10-31T10:29:16;15.43;;;8.80;;
29358;SDS011;16347;53.232;6.556;2022-10-31T10:31:52;16.15;;;9.30;;
29358;SDS011;16347;53.232;6.556;2022-10-31T10:34:22;18.92;;;9.52;;
29358;SDS011;16347;53.232;6.556;2022-10-31T10:36:56;18.27;;;9.73;;
29358;SDS011;16347;53.232;6.556;2022-10-31T10:39:31;16.50;;;9.27;;
29358;SDS011;16347;53.232;6.556;2022-10-31T10:42:07;17.65;;;9.75;;
29358;SDS011;16347;53.232;6.556;2022-10-31T10:44:56;13.75;;;8.40;;
29358;SDS011;16347;53.232;6.556;2022-10-31T10:47:43;20.23;;;10.55;;
29358;SDS011;16347;53.232;6.556;2022-10-31T10:50:17;20.23;;;10.45;;
29358;SDS011;16347;53.232;6.556;2022-10-31T10:52:52;14.88;;;9.43;;
29358;SDS011;16347;53.232;6.556;2022-10-31T10:55:32;18.27;;;9.80;;
29358;SDS011;16347;53.232;6.556;2022-10-31T10:58:05;18.17;;;9.95;;
29358;SDS011;16347;53.232;6.556;2022-10-31T11:00:38;22.52;;;10.55;;
29358;SDS011;16347;53.232;6.556;2022-10-31T11:03:08;17.73;;;10.15;;
29358;SDS011;16347;53.232;6.556;2022-10-31T11:05:37;20.85;;;11.18;;
29358;SDS011;16347;53.232;6.556;2022-10-31T11:08:11;18.52;;;11.32;;
29358;SDS011;16347;53.232;6.556;2022-10-31T11:10:59;23.80;;;10.55;;
29358;SDS011;16347;53.232;6.556;2022-10-31T11:13:29;17.25;;;10.35;;
29358;SDS011;16347;53.232;6.556;2022-10-31T11:15:59;16.77;;;11.02;;
29358;SDS011;16347;53.232;6.556;2022-10-31T11:18:30;18.85;;;9.73;;
29358;SDS011;16347;53.232;6.556;2022-10-31T11:21:00;16.05;;;9.50;;
29358;SDS011;16347;53.232;6.556;2022-10-31T11:23:31;17.10;;;10.25;;
29358;SDS011;16347;53.232;6.556;2022-10-31T11:26:02;19.48;;;9.35;;
29358;SDS011;16347;53.232;6.556;2022-10-31T11:28:34;17.38;;;9.43;;
29358;SDS011;16347;53.232;6.556;2022-10-31T11:31:05;17.73;;;10.38;;
29358;SDS011;16347;53.232;6.556;2022-10-31T11:33:35;15.45;;;9.02;;
29358;SDS011;16347;53.232;6.556;2022-10-31T11:36:13;22.42;;;10.82;;
29358;SDS011;16347;53.232;6.556;2022-10-31T11:38:43;17.08;;;9.73;;
29358;SDS011;16347;53.232;6.556;2022-10-31T11:41:13;14.95;;;8.98;;
29358;SDS011;16347;53.232;6.556;2022-10-31T11:43:45;20.00;;;9.45;;
29358;SDS011;16347;53.232;6.556;2022-10-31T11:46:17;15.52;;;8.05;;
29358;SDS011;16347;53.232;6.556;2022-10-31T11:48:48;16.23;;;7.97;;
29358;SDS011;16347;53.232;6.556;2022-10-31T11:51:22;14.77;;;7.78;;
29358;SDS011;16347;53.232;6.556;2022-10-31T11:53:53;17.40;;;8.93;;
29358;SDS011;16347;53.232;6.556;2022-10-31T11:56:38;14.18;;;7.18;;
29358;SDS011;16347;53.232;6.556;2022-10-31T11:59:15;11.15;;;6.82;;
29358;SDS011;16347;53.232;6.556;2022-10-31T12:01:47;13.90;;;5.97;;
29358;SDS011;16347;53.232;6.556;2022-10-31T12:04:16;16.40;;;5.68;;
29358;SDS011;16347;53.232;6.556;2022-10-31T12:06:45;12.55;;;5.90;;
29358;SDS011;16347;53.232;6.556;2022-10-31T12:09:20;11.57;;;5.38;;
29358;SDS011;16347;53.232;6.556;2022-10-31T12:11:58;11.38;;;5.28;;
29358;SDS011;16347;53.232;6.556;2022-10-31T12:14:35;11.98;;;5.00;;
29358;SDS011;16347;53.232;6.556;2022-10-31T12:17:13;11.70;;;5.80;;
29358;SDS011;16347;53.232;6.556;2022-10-31T12:19:46;12.55;;;5.90;;
29358;SDS011;16347;53.232;6.556;2022-10-31T12:22:23;12.98;;;6.15;;
29358;SDS011;16347;53.232;6.556;2022-10-31T12:25:02;16.52;;;6.68;;
29358;SDS011;16347;53.232;6.556;2022-10-31T12:27:59;11.30;;;6.18;;
29358;SDS011;16347;53.232;6.556;2022-10-31T12:30:40;17.33;;;7.43;;
29358;SDS011;16347;53.232;6.556;2022-10-31T12:33:22;12.48;;;6.15;;
29358;SDS011;16347;53.232;6.556;2022-10-31T12:36:07;15.13;;;6.68;;
29358;SDS011;16347;53.232;6.556;2022-10-31T12:38:51;15.05;;;6.43;;
29358;SDS011;16347;53.232;6.556;2022-10-31T12:41:34;19.90;;;6.25;;
29358;SDS011;16347;53.232;6.556;2022-10-31T12:44:16;12.00;;;6.35;;
29358;SDS011;16347;53.232;6.556;2022-10-31T12:47:13;13.68;;;5.90;;
29358;SDS011;16347;53.232;6.556;2022-10-31T12:49:59;12.95;;;6.13;;
29358;SDS011;16347;53.232;6.556;2022-10-31T12:52:44;17.50;;;5.90;;
29358;SDS011;16347;53.232;6.556;2022-10-31T12:55:29;17.40;;;6.18;;
29358;SDS011;16347;53.232;6.556;2022-10-31T12:58:07;10.63;;;4.75;;
29358;SDS011;16347;53.232;6.556;2022-10-31T13:00:40;17.48;;;5.03;;
29358;SDS011;16347;53.232;6.556;2022-10-31T13:03:17;13.20;;;5.28;;
29358;SDS011;16347;53.232;6.556;2022-10-31T13:05:51;11.70;;;4.90;;
29358;SDS011;16347;53.232;6.556;2022-10-31T13:08:25;19.23;;;5.60;;
29358;SDS011;16347;53.232;6.556;2022-10-31T13:10:59;13.07;;;4.85;;
29358;SDS011;16347;53.232;6.556;2022-10-31T13:13:35;17.08;;;4.88;;
29358;SDS011;16347;53.232;6.556;2022-10-31T13:16:09;14.25;;;4.25;;
29358;SDS011;16347;53.232;6.556;2022-10-31T13:18:44;15.98;;;4.63;;
29358;SDS011;16347;53.232;6.556;2022-10-31T13:21:17;17.13;;;5.38;;
29358;SDS011;16347;53.232;6.556;2022-10-31T13:23:49;16.85;;;4.53;;
29358;SDS011;16347;53.232;6.556;2022-10-31T13:26:20;18.10;;;5.32;;
29358;SDS011;16347;53.232;6.556;2022-10-31T13:28:56;15.95;;;4.32;;
29358;SDS011;16347;53.232;6.556;2022-10-31T13:31:31;10.35;;;4.47;;
29358;SDS011;16347;53.232;6.556;2022-10-31T13:34:01;17.05;;;4.35;;
29358;SDS011;16347;53.232;6.556;2022-10-31T13:36:37;16.35;;;4.53;;
29358;SDS011;16347;53.232;6.556;2022-10-31T13:39:13;10.63;;;3.93;;
29358;SDS011;16347;53.232;6.556;2022-10-31T13:41:52;13.20;;;3.92;;
29358;SDS011;16347;53.232;6.556;2022-10-31T13:44:24;15.75;;;3.80;;
29358;SDS011;16347;53.232;6.556;2022-10-31T13:47:00;12.60;;;4.00;;
29358;SDS011;16347;53.232;6.556;2022-10-31T13:49:37;12.55;;;3.80;;
29358;SDS011;16347;53.232;6.556;2022-10-31T13:52:13;12.02;;;3.45;;
29358;SDS011;16347;53.232;6.556;2022-10-31T13:54:44;8.23;;;3.17;;
29358;SDS011;16347;53.232;6.556;2022-10-31T13:57:17;15.10;;;4.07;;
29358;SDS011;16347;53.232;6.556;2022-10-31T13:59:47;9.90;;;2.97;;
29358;SDS011;16347;53.232;6.556;2022-10-31T14:02:20;13.82;;;3.63;;
29358;SDS011;16347;53.232;6.556;2022-10-31T14:04:55;10.43;;;3.53;;
29358;SDS011;16347;53.232;6.556;2022-10-31T14:07:25;15.48;;;4.03;;
29358;SDS011;16347;53.232;6.556;2022-10-31T14:09:56;13.13;;;3.80;;
29358;SDS011;16347;53.232;6.556;2022-10-31T14:12:29;11.55;;;3.47;;
29358;SDS011;16347;53.232;6.556;2022-10-31T14:14:59;12.30;;;4.00;;
29358;SDS011;16347;53.232;6.556;2022-10-31T14:17:36;13.48;;;4.53;;
29358;SDS011;16347;53.232;6.556;2022-10-31T14:20:24;15.15;;;4.07;;
29358;SDS011;16347;53.232;6.556;2022-10-31T14:26:19;14.30;;;5.00;;
29358;SDS011;16347;53.232;6.556;2022-10-31T14:28:58;12.88;;;5.65;;
29358;SDS011;16347;53.232;6.556;2022-10-31T14:31:29;12.50;;;4.68;;
29358;SDS011;16347;53.232;6.556;2022-10-31T14:34:04;14.40;;;4.88;;
29358;SDS011;16347;53.232;6.556;2022-10-31T14:36:55;15.63;;;5.25;;
29358;SDS011;16347;53.232;6.556;2022-10-31T14:39:31;10.45;;;4.78;;
29358;SDS011;16347;53.232;6.556;2022-10-31T14:42:10;11.75;;;4.75;;
29358;SDS011;16347;53.232;6.556;2022-10-31T14:44:57;19.45;;;5.43;;
29358;SDS011;16347;53.232;6.556;2022-10-31T14:47:36;16.73;;;4.47;;
29358;SDS011;16347;53.232;6.556;2022-10-31T14:50:21;15.75;;;5.00;;
29358;SDS011;16347;53.232;6.556;2022-10-31T14:53:01;15.82;;;4.95;;
29358;SDS011;16347;53.232;6.556;2022-10-31T14:55:31;15.88;;;4.65;;
29358;SDS011;16347;53.232;6.556;2022-10-31T14:58:00;14.68;;;5.07;;
29358;SDS011;16347;53.232;6.556;2022-10-31T15:00:32;13.45;;;4.80;;
29358;SDS011;16347;53.232;6.556;2022-10-31T15:03:05;11.15;;;4.75;;
29358;SDS011;16347;53.232;6.556;2022-10-31T15:05:46;12.45;;;4.32;;
29358;SDS011;16347;53.232;6.556;2022-10-31T15:11:09;12.20;;;4.43;;
29358;SDS011;16347;53.232;6.556;2022-10-31T15:13:42;9.07;;;4.03;;
29358;SDS011;16347;53.232;6.556;2022-10-31T15:18:45;18.15;;;5.40;;
29358;SDS011;16347;53.232;6.556;2022-10-31T15:21:20;16.83;;;5.43;;
29358;SDS011;16347;53.232;6.556;2022-10-31T15:23:51;13.40;;;5.28;;
29358;SDS011;16347;53.232;6.556;2022-10-31T15:26:21;12.27;;;5.20;;
29358;SDS011;16347;53.232;6.556;2022-10-31T15:28:57;11.77;;;4.72;;
29358;SDS011;16347;53.232;6.556;2022-10-31T15:31:27;14.32;;;5.72;;